createdAt,value
2018-11-29T00:00:30.916Z,9.50
2018-11-29T00:02:59.727Z,10.20
2018-11-29T00:05:28.325Z,9.60
2018-11-29T00:07:57.342Z,9.40
2018-11-29T00:10:25.981Z,10.17
2018-11-29T00:12:54.913Z,9.30
2018-11-29T00:15:23.645Z,10.00
2018-11-29T00:17:52.189Z,9.70
2018-11-29T00:20:21.321Z,9.90
2018-11-29T00:22:50.974Z,9.53
2018-11-29T00:25:20.380Z,8.60
2018-11-29T00:27:49.374Z,8.33
2018-11-29T00:30:19.243Z,10.27
2018-11-29T00:32:48.191Z,9.53
2018-11-29T00:35:17.495Z,8.70
2018-11-29T00:37:46.572Z,9.13
2018-11-29T00:40:16.506Z,8.93
2018-11-29T00:42:45.229Z,8.00
2018-11-29T00:45:15.737Z,9.27
2018-11-29T00:47:45.201Z,8.60
2018-11-29T00:50:14.900Z,8.10
2018-11-29T00:52:44.639Z,8.47
2018-11-29T00:55:16.675Z,8.30
2018-11-29T00:57:45.403Z,8.10
2018-11-29T01:00:16.951Z,8.03
2018-11-29T01:02:45.616Z,10.00
2018-11-29T01:05:14.419Z,8.83
2018-11-29T01:07:43.005Z,9.60
2018-11-29T01:10:13.878Z,7.70
2018-11-29T01:12:43.057Z,8.30
2018-11-29T01:15:13.847Z,10.43
2018-11-29T01:17:42.718Z,10.10
2018-11-29T01:20:12.489Z,9.40
2018-11-29T01:22:41.408Z,9.33
2018-11-29T01:25:11.881Z,11.20
2018-11-29T01:27:41.216Z,11.27
2018-11-29T01:30:13.958Z,9.97
2018-11-29T01:32:42.666Z,9.50
2018-11-29T01:35:12.298Z,10.17
2018-11-29T01:37:41.192Z,8.83
2018-11-29T01:40:20.672Z,6.50
2018-11-29T01:42:55.387Z,8.60
2018-11-29T01:45:24.221Z,7.00
2018-11-29T01:47:52.794Z,7.40
2018-11-29T01:50:21.531Z,7.30
2018-11-29T01:52:50.037Z,8.20
2018-11-29T01:55:18.552Z,7.97
2018-11-29T01:57:47.142Z,7.10
2018-11-29T02:00:16.757Z,8.67
2018-11-29T02:02:46.650Z,8.20
2018-11-29T02:05:15.537Z,8.70
2018-11-29T02:07:44.247Z,8.50
2018-11-29T02:10:19.175Z,7.93
2018-11-29T02:12:47.792Z,7.73
2018-11-29T02:15:16.384Z,8.83
2018-11-29T02:17:45.068Z,10.00
2018-11-29T02:20:15.830Z,10.07
2018-11-29T02:22:44.621Z,9.33
2018-11-29T02:25:13.386Z,8.60
2018-11-29T02:27:41.942Z,10.57
2018-11-29T02:30:17.912Z,10.90
2018-11-29T02:32:46.818Z,9.50
2018-11-29T02:35:15.806Z,9.93
2018-11-29T02:37:44.700Z,10.77
2018-11-29T02:40:14.315Z,10.93
2018-11-29T02:42:43.557Z,11.67
2018-11-29T02:45:13.449Z,11.17
2018-11-29T02:47:41.964Z,9.80
2018-11-29T02:50:11.696Z,9.57
2018-11-29T02:52:40.367Z,10.27
2018-11-29T02:55:10.127Z,10.03
2018-11-29T02:57:38.905Z,9.37
2018-11-29T03:00:15.025Z,8.80
2018-11-29T03:02:43.694Z,11.20
2018-11-29T03:05:12.488Z,11.00
2018-11-29T03:07:41.184Z,9.13
2018-11-29T03:10:14.580Z,9.80
2018-11-29T03:12:43.814Z,10.13
2018-11-29T03:15:13.422Z,9.50
2018-11-29T03:17:42.358Z,9.60
2018-11-29T03:20:12.785Z,8.60
2018-11-29T03:22:41.401Z,9.53
2018-11-29T03:25:13.835Z,8.47
2018-11-29T03:27:42.861Z,7.47
2018-11-29T03:30:14.458Z,6.50
2018-11-29T03:32:43.112Z,7.57
2018-11-29T03:35:12.724Z,6.20
2018-11-29T03:37:41.246Z,6.43
2018-11-29T03:40:13.060Z,6.17
2018-11-29T03:42:41.707Z,6.50
2018-11-29T03:45:12.667Z,5.43
2018-11-29T03:47:41.281Z,4.90
2018-11-29T03:50:18.152Z,6.33
2018-11-29T03:52:47.175Z,5.43
2018-11-29T03:55:15.724Z,6.97
2018-11-29T03:57:44.496Z,7.43
2018-11-29T04:00:16.206Z,8.40
2018-11-29T04:02:45.826Z,8.03
2018-11-29T04:05:14.564Z,8.60
2018-11-29T04:07:43.197Z,8.67
2018-11-29T04:10:13.986Z,8.87
2018-11-29T04:12:42.725Z,9.60
2018-11-29T04:15:13.306Z,9.43
2018-11-29T04:17:41.903Z,9.07
2018-11-29T04:20:17.633Z,9.10
2018-11-29T04:22:46.261Z,9.10
2018-11-29T04:25:15.633Z,8.43
2018-11-29T04:27:44.438Z,9.70
2018-11-29T04:30:16.084Z,8.57
2018-11-29T04:32:44.858Z,9.80
2018-11-29T04:35:14.075Z,9.30
2018-11-29T04:37:42.662Z,10.10
2018-11-29T04:40:16.365Z,10.17
2018-11-29T04:42:45.579Z,9.43
2018-11-29T04:45:15.204Z,9.53
2018-11-29T04:47:44.050Z,9.33
2018-11-29T04:50:12.739Z,9.13
2018-11-29T04:52:41.290Z,11.00
2018-11-29T04:55:10.369Z,8.93
2018-11-29T04:57:39.257Z,9.20
2018-11-29T05:00:12.690Z,8.63
2018-11-29T05:02:41.274Z,9.20
2018-11-29T05:05:10.792Z,9.80
2018-11-29T05:07:39.423Z,9.50
2018-11-29T05:10:09.760Z,10.63
2018-11-29T05:12:38.293Z,13.50
2018-11-29T05:15:08.708Z,11.73
2018-11-29T05:17:37.558Z,11.03
2018-11-29T05:20:07.047Z,9.70
2018-11-29T05:22:35.629Z,10.63
2018-11-29T05:25:04.850Z,13.47
2018-11-29T05:27:34.431Z,9.77
2018-11-29T05:30:03.032Z,11.93
2018-11-29T05:32:31.824Z,10.50
2018-11-29T05:35:00.413Z,9.50
2018-11-29T05:37:29.125Z,10.47
2018-11-29T05:39:57.683Z,11.13
2018-11-29T05:42:26.395Z,10.70
2018-11-29T05:44:54.913Z,10.00
2018-11-29T05:47:23.497Z,10.20
2018-11-29T05:49:52.531Z,10.47
2018-11-29T05:52:21.074Z,10.10
2018-11-29T05:54:49.971Z,11.93
2018-11-29T05:57:18.510Z,13.20
2018-11-29T05:59:47.158Z,12.13
2018-11-29T06:02:15.860Z,14.70
2018-11-29T06:04:44.662Z,10.87
2018-11-29T06:07:13.430Z,9.80
2018-11-29T06:09:42.105Z,11.10
2018-11-29T06:12:10.656Z,10.50
2018-11-29T06:14:39.349Z,12.00
2018-11-29T06:17:07.874Z,11.13
2018-11-29T06:19:36.439Z,9.57
2018-11-29T06:22:05.136Z,10.40
2018-11-29T06:24:33.686Z,12.13
2018-11-29T06:27:02.292Z,12.97
2018-11-29T06:29:30.942Z,13.23
2018-11-29T06:31:59.681Z,12.17
2018-11-29T06:34:28.341Z,14.47
2018-11-29T06:36:57.131Z,9.27
2018-11-29T06:39:25.782Z,10.70
2018-11-29T06:41:54.461Z,13.57
2018-11-29T06:44:23.120Z,9.80
2018-11-29T06:46:51.755Z,8.97
2018-11-29T06:49:20.350Z,10.87
2018-11-29T06:51:48.886Z,9.27
2018-11-29T06:54:17.610Z,9.77
2018-11-29T06:56:46.187Z,9.80
2018-11-29T06:59:14.926Z,9.20
2018-11-29T07:01:43.537Z,9.90
2018-11-29T07:04:12.182Z,9.80
2018-11-29T07:06:40.745Z,9.97
2018-11-29T07:09:09.633Z,9.23
2018-11-29T07:11:38.211Z,10.83
2018-11-29T07:14:06.972Z,9.43
2018-11-29T07:16:35.560Z,10.13
2018-11-29T07:19:04.442Z,9.63
2018-11-29T07:21:54.629Z,9.70
2018-11-29T07:24:24.054Z,9.93
2018-11-29T07:26:52.702Z,10.83
2018-11-29T07:29:21.345Z,10.40
2018-11-29T07:31:50.035Z,9.17
2018-11-29T07:34:18.828Z,8.90
2018-11-29T07:36:47.424Z,10.47
2018-11-29T07:39:15.997Z,9.90
2018-11-29T07:41:44.541Z,9.63
2018-11-29T07:44:13.333Z,8.50
2018-11-29T07:46:41.913Z,9.30
2018-11-29T07:49:10.481Z,9.37
2018-11-29T07:51:39.049Z,8.27
2018-11-29T07:54:07.627Z,8.57
2018-11-29T07:56:36.235Z,7.87
2018-11-29T07:59:04.945Z,8.97
2018-11-29T08:01:33.653Z,8.73
2018-11-29T08:04:02.297Z,8.17
2018-11-29T08:06:30.993Z,7.17
2018-11-29T08:08:59.694Z,8.17
2018-11-29T08:11:28.318Z,8.43
2018-11-29T08:13:57.098Z,8.30
2018-11-29T08:16:26.675Z,8.40
2018-11-29T08:18:55.579Z,7.87
2018-11-29T08:21:24.162Z,7.50
2018-11-29T08:23:52.863Z,7.87
2018-11-29T08:26:21.622Z,9.50
2018-11-29T08:28:50.221Z,9.03
2018-11-29T08:31:19.006Z,8.77
2018-11-29T08:33:47.556Z,6.83
2018-11-29T08:36:16.209Z,5.30
2018-11-29T08:38:44.850Z,18.80
2018-11-29T08:41:13.577Z,10.87
2018-11-29T08:43:42.155Z,6.20
2018-11-29T08:46:10.741Z,5.27
2018-11-29T08:48:39.479Z,4.70
2018-11-29T08:51:08.263Z,4.40
2018-11-29T08:53:36.893Z,4.90
2018-11-29T08:56:06.044Z,5.30
2018-11-29T08:58:34.647Z,5.13
2018-11-29T09:01:03.270Z,5.37
2018-11-29T09:03:32.100Z,4.83
2018-11-29T09:06:00.996Z,6.13
2018-11-29T09:08:29.540Z,4.90
2018-11-29T09:10:58.218Z,5.40
2018-11-29T09:13:26.816Z,6.07
2018-11-29T09:15:55.398Z,6.00
2018-11-29T09:18:24.282Z,5.83
2018-11-29T09:20:53.126Z,5.83
2018-11-29T09:23:21.968Z,5.90
2018-11-29T09:25:50.823Z,5.13
2018-11-29T09:28:19.725Z,5.80
2018-11-29T09:30:48.521Z,6.20
2018-11-29T09:33:17.355Z,6.33
2018-11-29T09:35:46.074Z,6.20
2018-11-29T09:38:15.040Z,6.10
2018-11-29T09:40:43.565Z,5.30
2018-11-29T09:43:12.196Z,6.27
2018-11-29T09:45:40.824Z,5.80
2018-11-29T09:48:09.407Z,6.13
2018-11-29T09:50:38.140Z,5.73
2018-11-29T09:53:06.705Z,6.47
2018-11-29T09:55:35.531Z,6.07
2018-11-29T09:58:04.502Z,5.70
2018-11-29T10:00:33.613Z,4.93
2018-11-29T10:03:11.255Z,6.10
2018-11-29T10:05:40.978Z,6.87
2018-11-29T10:08:12.095Z,5.93
2018-11-29T10:10:39.437Z,4.97
2018-11-29T10:13:08.175Z,5.13
2018-11-29T10:15:37.107Z,4.17
2018-11-29T10:18:06.552Z,3.97
2018-11-29T10:20:35.309Z,3.97
2018-11-29T10:23:04.115Z,4.37
2018-11-29T10:25:32.911Z,3.20
2018-11-29T10:28:06.646Z,3.47
2018-11-29T10:30:39.414Z,3.40
2018-11-29T10:33:07.980Z,3.30
2018-11-29T10:35:36.535Z,4.67
2018-11-29T10:38:05.272Z,2.77
2018-11-29T10:40:33.951Z,3.53
2018-11-29T10:43:02.543Z,3.87
2018-11-29T10:45:31.292Z,3.43
2018-11-29T10:48:00.079Z,2.73
2018-11-29T10:50:28.633Z,3.00
2018-11-29T10:52:57.385Z,3.13
2018-11-29T10:55:25.967Z,2.70
2018-11-29T10:57:54.486Z,3.97
2018-11-29T11:00:29.411Z,4.70
2018-11-29T11:03:05.556Z,5.30
2018-11-29T11:05:34.474Z,5.20
2018-11-29T11:08:08.079Z,3.27
2018-11-29T11:10:31.987Z,4.90
2018-11-29T11:13:00.870Z,5.73
2018-11-29T11:15:29.646Z,4.93
2018-11-29T11:17:58.288Z,4.00
2018-11-29T11:20:26.873Z,4.60
2018-11-29T11:22:55.607Z,5.20
2018-11-29T11:25:24.207Z,4.97
2018-11-29T11:27:53.011Z,4.20
2018-11-29T11:30:22.359Z,4.23
2018-11-29T11:32:52.067Z,4.23
2018-11-29T11:35:20.709Z,5.20
2018-11-29T11:37:49.351Z,5.03
2018-11-29T11:40:18.572Z,6.90
2018-11-29T11:42:47.825Z,7.20
2018-11-29T11:45:19.513Z,4.90
2018-11-29T11:47:48.165Z,9.93
2018-11-29T11:50:23.824Z,6.13
2018-11-29T11:52:53.553Z,5.60
2018-11-29T11:55:22.447Z,4.80
2018-11-29T11:57:51.174Z,5.70
2018-11-29T12:00:23.121Z,5.40
2018-11-29T12:02:55.251Z,5.10
2018-11-29T12:05:23.929Z,5.07
2018-11-29T12:07:52.571Z,5.57
2018-11-29T12:10:21.433Z,5.23
2018-11-29T12:12:50.068Z,5.87
2018-11-29T12:15:18.571Z,5.40
2018-11-29T12:17:47.738Z,4.93
2018-11-29T12:20:18.359Z,5.00
2018-11-29T12:22:47.133Z,5.10
2018-11-29T12:25:17.926Z,5.63
2018-11-29T12:27:46.641Z,4.80
2018-11-29T12:30:24.508Z,15.10
2018-11-29T12:32:54.601Z,4.83
2018-11-29T12:35:23.485Z,5.23
2018-11-29T12:37:53.214Z,3.80
2018-11-29T12:40:20.809Z,4.80
2018-11-29T12:42:49.459Z,5.57
2018-11-29T12:45:18.230Z,4.80
2018-11-29T12:47:46.897Z,4.43
2018-11-29T12:50:17.490Z,4.87
2018-11-29T12:52:46.309Z,4.00
2018-11-29T12:55:16.871Z,11.30
2018-11-29T12:57:45.630Z,4.50
2018-11-29T13:00:16.518Z,3.90
2018-11-29T13:02:50.976Z,4.20
2018-11-29T13:05:19.803Z,3.80
2018-11-29T13:07:48.482Z,4.07
2018-11-29T13:10:18.220Z,3.20
2018-11-29T13:12:47.067Z,3.00
2018-11-29T13:15:19.092Z,3.50
2018-11-29T13:17:47.853Z,4.77
2018-11-29T13:20:17.351Z,2.60
2018-11-29T13:22:46.088Z,3.20
2018-11-29T13:25:20.909Z,3.93
2018-11-29T13:27:49.543Z,3.93
2018-11-29T13:30:20.335Z,3.70
2018-11-29T13:32:50.082Z,3.73
2018-11-29T13:35:38.066Z,4.30
2018-11-29T13:38:13.042Z,4.30
2018-11-29T13:40:44.140Z,5.00
2018-11-29T13:43:12.793Z,7.83
2018-11-29T13:45:41.498Z,6.00
2018-11-29T13:48:11.281Z,4.27
2018-11-29T13:50:40.671Z,3.90
2018-11-29T13:53:09.352Z,5.27
2018-11-29T13:55:38.206Z,3.70
2018-11-29T13:58:06.957Z,4.60
2018-11-29T14:00:35.622Z,4.60
2018-11-29T14:03:13.300Z,5.37
2018-11-29T14:05:42.050Z,5.60
2018-11-29T14:08:11.027Z,4.63
2018-11-29T14:10:40.940Z,6.53
2018-11-29T14:13:10.160Z,6.37
2018-11-29T14:15:39.246Z,6.13
2018-11-29T14:18:08.523Z,7.03
2018-11-29T14:20:37.128Z,7.20
2018-11-29T14:23:06.167Z,6.30
2018-11-29T14:25:34.866Z,8.10
2018-11-29T14:28:03.501Z,7.80
2018-11-29T14:30:32.262Z,8.70
2018-11-29T14:33:01.738Z,8.90
2018-11-29T14:35:30.376Z,10.00
2018-11-29T14:37:59.187Z,9.30
2018-11-29T14:40:29.685Z,7.53
2018-11-29T14:42:58.632Z,6.90
2018-11-29T14:45:27.609Z,7.80
2018-11-29T14:47:56.627Z,7.93
2018-11-29T14:50:33.767Z,8.27
2018-11-29T14:53:02.801Z,7.90
2018-11-29T14:55:31.500Z,7.83
2018-11-29T14:58:00.089Z,9.10
2018-11-29T15:00:29.030Z,9.40
2018-11-29T15:02:58.555Z,8.27
2018-11-29T15:05:29.467Z,11.93
2018-11-29T15:07:58.270Z,8.77
2018-11-29T15:10:27.101Z,8.87
2018-11-29T15:12:55.955Z,11.17
2018-11-29T15:15:24.846Z,8.13
2018-11-29T15:17:54.354Z,8.43
2018-11-29T15:20:28.464Z,8.73
2018-11-29T15:22:57.239Z,9.03
2018-11-29T15:25:26.084Z,7.47
2018-11-29T15:27:54.873Z,7.97
2018-11-29T15:30:24.096Z,9.47
2018-11-29T15:32:52.853Z,9.80
2018-11-29T15:35:21.989Z,8.77
2018-11-29T15:37:50.792Z,9.70
2018-11-29T15:40:19.571Z,8.23
2018-11-29T15:42:48.974Z,12.40
2018-11-29T15:45:20.045Z,8.87
2018-11-29T15:47:49.009Z,8.70
2018-11-29T15:50:17.825Z,6.90
2018-11-29T15:52:47.077Z,7.60
2018-11-29T15:55:18.666Z,8.80
2018-11-29T15:57:48.687Z,8.83
2018-11-29T16:00:33.239Z,8.57
2018-11-29T16:03:04.967Z,8.87
2018-11-29T16:05:33.693Z,30.40
2018-11-29T16:08:02.535Z,9.00
2018-11-29T16:10:31.684Z,10.63
2018-11-29T16:13:00.364Z,11.63
2018-11-29T16:15:29.272Z,11.57
2018-11-29T16:17:58.148Z,10.07
2018-11-29T16:20:30.149Z,9.43
2018-11-29T16:22:58.951Z,11.53
2018-11-29T16:25:27.769Z,12.87
2018-11-29T16:27:56.391Z,10.93
2018-11-29T16:30:28.680Z,11.00
2018-11-29T16:32:59.283Z,10.33
2018-11-29T16:35:28.077Z,12.33
2018-11-29T16:37:56.874Z,13.10
2018-11-29T16:40:25.666Z,8.17
2018-11-29T16:42:54.527Z,6.87
2018-11-29T16:45:23.217Z,5.63
2018-11-29T16:47:51.903Z,4.80
2018-11-29T16:50:20.897Z,7.80
2018-11-29T16:52:49.590Z,6.20
2018-11-29T16:55:18.462Z,6.60
2018-11-29T16:57:49.220Z,5.80
2018-11-29T17:00:20.390Z,5.40
2018-11-29T17:02:49.190Z,4.93
2018-11-29T17:05:18.036Z,5.00
2018-11-29T17:07:47.043Z,4.53
2018-11-29T17:10:17.900Z,4.17
2018-11-29T17:12:55.973Z,5.27
2018-11-29T17:15:24.798Z,3.93
2018-11-29T17:17:53.670Z,4.60
2018-11-29T17:20:22.609Z,4.80
2018-11-29T17:22:52.146Z,5.43
2018-11-29T17:25:20.906Z,5.40
2018-11-29T17:27:49.715Z,4.97
2018-11-29T17:30:24.062Z,4.10
2018-11-29T17:32:56.129Z,4.80
2018-11-29T17:35:24.915Z,4.23
2018-11-29T17:37:55.167Z,4.30
2018-11-29T17:40:24.087Z,4.57
2018-11-29T17:42:54.146Z,4.73
2018-11-29T17:45:25.361Z,3.67
2018-11-29T17:47:57.504Z,3.97
2018-11-29T17:50:36.635Z,3.90
2018-11-29T17:53:06.347Z,3.00
2018-11-29T17:55:35.667Z,3.30
2018-11-29T17:58:07.478Z,5.30
2018-11-29T18:00:36.611Z,4.60
2018-11-29T18:03:06.319Z,3.70
2018-11-29T18:05:35.120Z,4.80
2018-11-29T18:08:03.955Z,4.77
2018-11-29T18:10:34.589Z,3.90
2018-11-29T18:13:10.874Z,4.10
2018-11-29T18:15:39.794Z,4.73
2018-11-29T18:18:08.601Z,4.97
2018-11-29T18:20:37.553Z,4.60
2018-11-29T18:23:07.284Z,5.90
2018-11-29T18:25:36.212Z,5.00
2018-11-29T18:28:05.689Z,4.63
2018-11-29T18:30:34.671Z,5.87
2018-11-29T18:33:03.628Z,4.40
2018-11-29T18:35:32.563Z,4.10
2018-11-29T18:38:01.613Z,4.97
2018-11-29T18:40:30.436Z,5.17
2018-11-29T18:43:00.133Z,4.77
2018-11-29T18:45:29.213Z,4.30
2018-11-29T18:47:58.082Z,4.30
2018-11-29T18:50:27.506Z,4.83
2018-11-29T18:52:56.638Z,4.80
2018-11-29T18:55:26.446Z,5.40
2018-11-29T18:57:56.473Z,5.33
2018-11-29T19:00:27.737Z,4.00
2018-11-29T19:02:57.162Z,5.20
2018-11-29T19:05:25.854Z,5.60
2018-11-29T19:07:54.745Z,6.70
2018-11-29T19:10:24.161Z,5.27
2018-11-29T19:13:04.753Z,5.77
2018-11-29T19:15:33.716Z,6.50
2018-11-29T19:18:03.327Z,6.07
2018-11-29T19:20:33.557Z,6.60
2018-11-29T19:23:02.460Z,6.33
2018-11-29T19:25:34.832Z,7.30
2018-11-29T19:28:04.892Z,7.80
2018-11-29T19:30:34.242Z,8.80
2018-11-29T19:33:17.268Z,7.40
2018-11-29T19:35:44.219Z,6.93
2018-11-29T19:38:13.473Z,7.50
2018-11-29T19:40:42.485Z,7.90
2018-11-29T19:43:11.663Z,7.33
2018-11-29T19:45:41.137Z,7.67
2018-11-29T19:48:10.812Z,6.87
2018-11-29T19:50:40.084Z,8.43
2018-11-29T19:53:16.740Z,8.33
2018-11-29T19:55:47.046Z,8.87
2018-11-29T19:58:16.321Z,7.80
2018-11-29T20:00:46.559Z,8.40
2018-11-29T20:03:15.674Z,7.70
2018-11-29T20:05:44.947Z,7.23
2018-11-29T20:08:14.292Z,7.97
2018-11-29T20:10:43.502Z,8.03
2018-11-29T20:13:14.638Z,7.90
2018-11-29T20:15:47.235Z,7.67
2018-11-29T20:18:17.151Z,7.60
2018-11-29T20:20:47.192Z,7.80
2018-11-29T20:23:17.107Z,7.30
2018-11-29T20:25:48.838Z,7.83
2018-11-29T20:28:18.914Z,8.20
2018-11-29T20:30:48.454Z,7.83
2018-11-29T20:33:17.515Z,7.80
2018-11-29T20:35:46.429Z,8.17
2018-11-29T20:38:15.717Z,7.93
2018-11-29T20:40:47.991Z,7.93
2018-11-29T20:43:19.481Z,8.80
2018-11-29T20:45:51.216Z,7.93
2018-11-29T20:48:24.024Z,8.10
2018-11-29T20:50:56.642Z,7.00
2018-11-29T20:53:31.877Z,6.40
2018-11-29T20:56:01.255Z,7.47
2018-11-29T20:58:29.978Z,7.63
2018-11-29T21:00:58.885Z,7.93
2018-11-29T21:03:28.324Z,7.87
2018-11-29T21:05:57.550Z,8.00
2018-11-29T21:08:26.428Z,8.40
2018-11-29T21:10:55.384Z,9.07
2018-11-29T21:13:24.409Z,9.17
2018-11-29T21:15:53.818Z,8.47
2018-11-29T21:18:22.818Z,7.43
2018-11-29T21:20:51.866Z,9.47
2018-11-29T21:23:20.825Z,15.30
2018-11-29T21:25:49.604Z,9.93
2018-11-29T21:28:18.472Z,10.70
2018-11-29T21:30:47.510Z,7.00
2018-11-29T21:33:16.433Z,12.60
2018-11-29T21:35:45.220Z,8.47
2018-11-29T21:38:17.123Z,13.00
2018-11-29T21:40:51.331Z,7.70
2018-11-29T21:43:20.281Z,7.70
2018-11-29T21:45:49.119Z,7.33
2018-11-29T21:48:18.104Z,7.33
2018-11-29T21:50:46.988Z,9.10
2018-11-29T21:53:15.707Z,7.70
2018-11-29T21:55:44.416Z,8.07
2018-11-29T21:58:13.356Z,8.50
2018-11-29T22:00:42.364Z,8.00
2018-11-29T22:03:11.208Z,8.33
2018-11-29T22:05:40.197Z,7.20
2018-11-29T22:08:09.017Z,9.90
2018-11-29T22:10:37.935Z,8.57
2018-11-29T22:13:06.699Z,9.83
2018-11-29T22:15:35.456Z,7.83
2018-11-29T22:18:10.697Z,7.33
2018-11-29T22:20:39.677Z,8.43
2018-11-29T22:23:08.522Z,7.70
2018-11-29T22:25:37.350Z,8.27
2018-11-29T22:28:06.318Z,8.20
2018-11-29T22:30:35.097Z,8.90
2018-11-29T22:33:04.168Z,8.17
2018-11-29T22:35:33.195Z,7.40
2018-11-29T22:38:01.815Z,6.10
2018-11-29T22:40:30.717Z,7.30
2018-11-29T22:42:59.361Z,7.17
2018-11-29T22:45:28.215Z,8.23
2018-11-29T22:47:56.795Z,6.30
2018-11-29T22:50:25.544Z,6.43
2018-11-29T22:52:54.346Z,7.40
2018-11-29T22:55:23.077Z,6.07
2018-11-29T22:57:51.769Z,6.73
2018-11-29T23:00:20.769Z,6.73
2018-11-29T23:02:50.208Z,8.10
2018-11-29T23:05:18.998Z,7.20
2018-11-29T23:07:47.750Z,8.00
2018-11-29T23:10:16.375Z,7.43
2018-11-29T23:12:45.041Z,6.40
2018-11-29T23:15:13.765Z,6.73
2018-11-29T23:17:42.413Z,6.90
2018-11-29T23:20:13.039Z,6.17
2018-11-29T23:22:41.818Z,6.17
2018-11-29T23:25:12.862Z,6.50
2018-11-29T23:27:41.754Z,6.80
2018-11-29T23:30:14.539Z,6.83
2018-11-29T23:32:43.667Z,6.83
2018-11-29T23:35:13.342Z,6.40
2018-11-29T23:37:41.921Z,7.10
2018-11-29T23:40:13.988Z,6.63
2018-11-29T23:42:42.850Z,6.47
2018-11-29T23:45:12.482Z,6.43
2018-11-29T23:47:41.147Z,6.50
2018-11-29T23:50:11.578Z,6.80
2018-11-29T23:52:40.342Z,6.40
2018-11-29T23:55:10.640Z,5.80
2018-11-29T23:57:39.194Z,7.07
